createdAt,value
2023-04-07T00:09:58.715Z,19.90
2023-04-07T00:25:01.481Z,22.30
2023-04-07T00:40:05.470Z,25.50
2023-04-07T00:55:08.814Z,19.80
2023-04-07T01:10:16.570Z,21.30
2023-04-07T01:25:35.560Z,22.70
2023-04-07T01:40:39.494Z,23.10
2023-04-07T01:55:44.257Z,19.50
2023-04-07T02:10:48.741Z,20.40
2023-04-07T02:25:51.365Z,18.80
2023-04-07T02:40:53.983Z,19.80
2023-04-07T02:55:57.225Z,21.70
2023-04-07T03:11:00.478Z,17.80
2023-04-07T03:26:03.029Z,19.90
2023-04-07T03:41:05.668Z,24.00
2023-04-07T03:56:08.542Z,19.50
2023-04-07T04:11:11.536Z,21.00
2023-04-07T04:26:14.272Z,22.00
2023-04-07T04:41:16.915Z,18.60
2023-04-07T04:56:19.529Z,18.40
2023-04-07T05:11:22.395Z,24.10
2023-04-07T05:26:25.165Z,21.40
2023-04-07T05:41:27.836Z,28.00
2023-04-07T05:56:30.582Z,22.10
2023-04-07T06:11:33.505Z,23.30
2023-04-07T06:26:36.312Z,18.60
2023-04-07T06:41:39.046Z,19.00
2023-04-07T06:56:42.955Z,23.40
2023-04-07T07:11:46.112Z,18.90
2023-04-07T07:26:48.754Z,22.60
2023-04-07T07:41:51.391Z,20.80
2023-04-07T07:56:54.006Z,18.50
2023-04-07T08:11:56.878Z,17.60
2023-04-07T08:26:59.613Z,17.00
2023-04-07T08:42:02.499Z,17.50
2023-04-07T08:57:05.254Z,17.70
2023-04-07T09:12:07.911Z,18.70
2023-04-07T09:42:21.623Z,15.80
2023-04-07T09:57:25.011Z,17.80
2023-04-07T10:12:28.784Z,18.70
2023-04-07T10:27:56.440Z,21.20
2023-04-07T10:42:59.470Z,18.30
2023-04-07T10:58:16.230Z,20.80
2023-04-07T11:13:18.853Z,20.90
2023-04-07T11:28:21.536Z,16.70
2023-04-07T12:13:29.599Z,19.10
2023-04-07T12:43:35.570Z,20.20
2023-04-07T12:58:38.216Z,18.20
2023-04-07T13:13:40.784Z,20.70
2023-04-07T13:28:45.956Z,24.50
2023-04-07T13:43:49.382Z,22.40
2023-04-07T13:58:52.520Z,19.00
2023-04-07T14:13:57.117Z,19.90
2023-04-07T14:28:59.729Z,18.70
2023-04-07T14:44:02.948Z,21.80
2023-04-07T14:59:05.791Z,23.10
2023-04-07T15:14:08.562Z,21.30
2023-04-07T15:29:11.669Z,17.20
2023-04-07T15:59:21.383Z,23.50
2023-04-07T16:29:26.555Z,17.20
2023-04-07T16:44:30.047Z,15.50
2023-04-07T16:59:32.694Z,14.30
2023-04-07T17:29:38.008Z,17.20
2023-04-07T18:44:50.919Z,17.30
2023-04-07T19:14:56.897Z,20.30
2023-04-07T19:29:59.503Z,20.80
2023-04-07T19:45:07.159Z,28.40
2023-04-07T20:00:10.619Z,43.30
2023-04-07T20:15:13.350Z,49.50
2023-04-07T20:30:16.529Z,40.30
2023-04-07T20:45:19.384Z,46.60
2023-04-07T21:00:21.969Z,39.10
2023-04-07T21:45:29.834Z,43.10
2023-04-07T22:00:32.657Z,29.30
2023-04-07T22:15:35.316Z,21.30
2023-04-07T22:45:41.127Z,17.00
2023-04-07T23:00:43.892Z,22.90
2023-04-07T23:15:46.673Z,21.60
2023-04-07T23:30:49.358Z,21.00
